Time;durP1;ratioP1;P1;durP2;ratioP2;P2;SDS_P1;SDS_P2;PMS_P1;PMS_P2;Temp;Humidity;BMP_temperature;BMP_pressure;BME280_temperature;BME280_humidity;BME280_pressure;Samples;Min_cycle;Max_cycle;Signal;HPM_P1;HPM_P2
2022/08/03 00:00:49;;;;;;;;;;;;;;;22.75;49.73;99850.16;1087874;54;19926;-85
2022/08/03 00:01:53;;;;;;;;;;;;;;;22.70;50.03;99842.69;1088180;54;19934;-88
2022/08/03 00:02:54;;;;;;;;;;;;;;;22.67;50.17;99842.31;1088374;54;19943;-86
2022/08/03 00:03:58;;;;;;;;;;;;;;;22.63;50.02;99841.09;1088944;39;20701;-84
2022/08/03 00:04:59;;;;;;;;;;;;;;;22.65;50.12;99839.81;1087992;54;19966;-84
2022/08/03 00:06:03;;;;;;;;;;;;;;;22.61;50.38;99840.50;1087992;54;19950;-85
2022/08/03 00:07:04;;;;;;;;;;;;;;;22.57;50.73;99843.69;1087965;54;19947;-84
2022/08/03 00:08:08;;;;;;;;;;;;;;;22.50;51.29;99842.91;1087997;54;19950;-85
2022/08/03 00:09:09;;;;;;;;;;;;;;;22.49;51.56;99840.44;1088174;54;19926;-85
2022/08/03 00:10:14;;;;;;;;;;;;;;;22.48;51.52;99836.91;1088434;54;20595;-87
2022/08/03 00:11:18;;;;;;;;;;;;;;;22.43;51.60;99839.47;1089932;46;19972;-85
2022/08/03 00:12:21;;;;;;;;;;;;;;;22.36;51.81;99836.78;1088327;54;20634;-84
2022/08/03 00:13:22;;;;;;;;;;;;;;;22.29;52.03;99847.75;1088378;54;19943;-84
2022/08/03 00:14:26;;;;;;;;;;;;;;;22.28;51.81;99842.53;1088396;54;19942;-86
2022/08/03 00:15:27;;;;;;;;;;;;;;;22.34;51.61;99843.50;1088380;54;19943;-86
2022/08/03 00:16:31;;;;;;;;;;;;;;;22.37;50.98;99841.16;1088404;54;19966;-87
2022/08/03 00:17:32;;;;;;;;;;;;;;;22.41;50.73;99836.97;1088399;54;19958;-85
2022/08/03 00:18:36;;;;;;;;;;;;;;;22.47;50.87;99842.56;1088425;54;19974;-86
2022/08/03 00:19:37;;;;;;;;;;;;;;;22.47;50.59;99837.97;1088467;54;19943;-85
2022/08/03 00:20:41;;;;;;;;;;;;;;;22.44;50.41;99838.41;1088362;54;20019;-85
2022/08/03 00:21:42;;;;;;;;;;;;;;;22.43;50.65;99837.56;1088314;54;20462;-87
2022/08/03 00:22:45;;;;;;;;;;;;;;;22.49;50.04;99835.81;1089602;46;19935;-86
2022/08/03 00:23:49;;;;;;;;;;;;;;;22.50;50.16;99832.03;1088458;54;19950;-84
2022/08/03 00:24:50;;;;;;;;;;;;;;;22.49;50.45;99833.09;1088045;54;19949;-88
2022/08/03 00:25:54;;;;;;;;;;;;;;;22.44;50.48;99832.94;1087981;54;19947;-87
2022/08/03 00:26:58;;;;;;;;;;;;;;;22.41;50.52;99831.53;1087855;54;19943;-86
2022/08/03 00:28:01;;;;;;;;;;;;;;;22.38;50.78;99837.38;1088384;54;19945;-85
2022/08/03 00:29:03;;;;;;;;;;;;;;;22.39;50.58;99832.75;1088374;54;19945;-81
2022/08/03 00:30:07;;;;;;;;;;;;;;;22.41;50.57;99834.25;1088369;54;19951;-83
2022/08/03 00:31:08;;;;;;;;;;;;;;;22.49;50.44;99833.09;1089099;46;19943;-82
2022/08/03 00:32:12;;;;;;;;;;;;;;;22.52;50.32;99837.25;1088150;54;19943;-82
2022/08/03 00:33:13;;;;;;;;;;;;;;;22.57;50.01;99835.53;1088377;54;19966;-83
2022/08/03 00:34:17;;;;;;;;;;;;;;;22.63;49.85;99830.19;1088314;54;20642;-83
2022/08/03 00:35:18;;;;;;;;;;;;;;;22.67;50.02;99826.78;1088285;54;19943;-87
2022/08/03 00:36:23;;;;;;;;;;;;;;;22.68;49.99;99831.19;1090935;39;20699;-86
2022/08/03 00:37:24;;;;;;;;;;;;;;;22.74;49.60;99827.53;1088415;54;19949;-86
2022/08/03 00:38:28;;;;;;;;;;;;;;;22.80;49.24;99830.41;1088528;54;19934;-87
2022/08/03 00:39:29;;;;;;;;;;;;;;;22.83;49.10;99830.78;1088475;54;19926;-85
2022/08/03 00:40:32;;;;;;;;;;;;;;;22.87;49.26;99831.94;1088486;54;19931;-88
2022/08/03 00:41:33;;;;;;;;;;;;;;;22.88;49.02;99830.88;1088434;54;19967;-86
2022/08/03 00:42:47;;;;;;;;;;;;;;;22.92;49.11;99833.16;1088183;54;19942;-86
2022/08/03 00:43:48;;;;;;;;;;;;;;;22.90;49.32;99834.22;1088098;54;19950;-86
2022/08/03 00:44:52;;;;;;;;;;;;;;;22.90;48.81;99834.22;1088239;54;19942;-86
2022/08/03 00:45:53;;;;;;;;;;;;;;;22.90;48.93;99838.84;1088431;54;20456;-86
2022/08/03 00:46:57;;;;;;;;;;;;;;;22.88;48.92;99838.25;1088369;54;20002;-86
2022/08/03 00:47:58;;;;;;;;;;;;;;;22.85;49.00;99825.06;1088372;54;19942;-86
2022/08/03 00:49:02;;;;;;;;;;;;;;;22.84;49.13;99832.44;1088492;54;19933;-85
2022/08/03 00:50:04;;;;;;;;;;;;;;;22.84;49.30;99837.88;1089796;39;20479;-85
2022/08/03 00:51:08;;;;;;;;;;;;;;;22.83;49.69;99829.91;1088420;54;19943;-87
2022/08/03 00:52:10;;;;;;;;;;;;;;;22.82;49.67;99830.97;1088434;54;19998;-88
2022/08/03 00:53:14;;;;;;;;;;;;;;;22.68;50.03;99830.34;1088478;54;19931;-86
2022/08/03 00:54:15;;;;;;;;;;;;;;;22.63;50.10;99830.19;1088435;54;19958;-87
2022/08/03 00:55:20;;;;;;;;;;;;;;;22.63;49.79;99825.56;1088452;54;20693;-87
2022/08/03 00:56:21;;;;;;;;;;;;;;;22.63;49.58;99824.75;1088416;54;19949;-86
2022/08/03 00:57:25;;;;;;;;;;;;;;;22.64;49.74;99823.69;1088397;54;19989;-85
2022/08/03 00:58:28;;;;;;;;;;;;;;;22.63;49.74;99824.75;1088519;54;19930;-88
2022/08/03 00:59:33;;;;;;;;;;;;;;;22.62;49.33;99834.84;1089003;46;20741;-87
2022/08/03 01:00:37;;;;;;;;;;;;;;;22.61;49.39;99827.72;1087979;54;19943;-85
2022/08/03 01:01:41;;;;;;;;;;;;;;;22.61;49.29;99826.88;1088352;39;20814;-87
2022/08/03 01:02:42;;;;;;;;;;;;;;;22.62;49.32;99825.81;1089319;46;19949;-86
2022/08/03 01:03:46;;;;;;;;;;;;;;;22.62;49.38;99828.53;1088494;54;19954;-87
2022/08/03 01:04:47;;;;;;;;;;;;;;;22.62;49.50;99828.53;1088469;54;20020;-87
2022/08/03 01:05:54;;;;;;;;;;;;;;;22.61;49.46;99827.72;1089844;39;20706;-85
2022/08/03 01:07:00;;;;;;;;;;;;;;;22.58;49.46;99828.97;1088590;54;20013;-87
2022/08/03 01:08:07;;;;;;;;;;;;;;;22.58;49.41;99826.25;1091779;46;20142;-85
2022/08/03 01:09:11;;;;;;;;;;;;;;;22.56;49.35;99819.38;1088515;54;19934;-88
2022/08/03 01:10:18;;;;;;;;;;;;;;;22.54;49.45;99825.06;1088528;54;20543;-86
2022/08/03 01:11:23;;;;;;;;;;;;;;;22.51;49.79;99824.72;1088524;54;19946;-88
2022/08/03 01:12:31;;;;;;;;;;;;;;;22.38;49.86;99820.22;1088320;54;19934;-84
2022/08/03 01:13:40;;;;;;;;;;;;;;;22.37;49.95;99816.66;1088381;54;19965;-82
2022/08/03 01:14:47;;;;;;;;;;;;;;;22.36;49.70;99822.34;1088357;54;19943;-83
2022/08/03 01:15:53;;;;;;;;;;;;;;;22.36;49.60;99816.91;1088302;54;19927;-82
2022/08/03 01:16:58;;;;;;;;;;;;;;;22.34;49.87;99821.72;1088298;54;19946;-82
2022/08/03 01:18:05;;;;;;;;;;;;;;;22.35;49.69;99816.06;1088001;54;19942;-83
2022/08/03 01:19:20;;;;;;;;;;;;;;;22.35;49.57;99817.94;1087954;54;19942;-82
2022/08/03 01:20:23;;;;;;;;;;;;;;;22.33;49.85;99820.06;1088047;54;19966;-83
2022/08/03 01:21:29;;;;;;;;;;;;;;;22.31;49.62;99823.03;1094452;39;20475;-84
2022/08/03 01:22:43;;;;;;;;;;;;;;;22.29;50.02;99825.97;1088274;54;20591;-84
2022/08/03 01:24:04;;;;;;;;;;;;;;;22.26;50.09;99826.44;1092359;39;20507;-84
2022/08/03 01:25:09;;;;;;;;;;;;;;;22.25;49.87;99819.31;1088262;54;19962;-83
2022/08/03 01:26:25;;;;;;;;;;;;;;;22.24;50.01;99814.94;1088354;54;19994;-82
2022/08/03 01:27:30;;;;;;;;;;;;;;;22.24;50.06;99820.38;1088288;54;19990;-84
2022/08/03 01:28:49;;;;;;;;;;;;;;;22.21;49.94;99830.88;1088339;54;19966;-82
2022/08/03 01:30:02;;;;;;;;;;;;;;;22.18;50.14;99813.13;1090625;46;19950;-83
2022/08/03 01:31:08;;;;;;;;;;;;;;;22.19;50.29;99820.25;1088298;54;19938;-80
2022/08/03 01:32:11;;;;;;;;;;;;;;;22.17;50.44;99813.34;1088258;54;19927;-82
2022/08/03 01:33:19;;;;;;;;;;;;;;;22.15;50.42;99824.47;1094406;39;20439;-84
2022/08/03 01:34:22;;;;;;;;;;;;;;;22.12;50.50;99808.56;1088269;54;20543;-83
2022/08/03 01:35:28;;;;;;;;;;;;;;;22.12;50.23;99817.59;1088087;54;19934;-85
2022/08/03 01:36:32;;;;;;;;;;;;;;;22.11;50.32;99815.91;1087879;54;19943;-84
2022/08/03 01:37:40;;;;;;;;;;;;;;;22.11;50.38;99815.06;1087806;54;19965;-84
2022/08/03 01:38:43;;;;;;;;;;;;;;;22.10;50.54;99805.28;1088172;54;19927;-82
2022/08/03 01:39:47;;;;;;;;;;;;;;;22.11;50.08;99807.75;1088319;54;19943;-84
2022/08/03 01:40:50;;;;;;;;;;;;;;;22.12;50.46;99816.75;1088260;54;20610;-82
2022/08/03 01:41:58;;;;;;;;;;;;;;;22.09;50.57;99811.78;1088233;54;19933;-83
2022/08/03 01:43:01;;;;;;;;;;;;;;;22.10;50.24;99806.09;1088257;54;19950;-83
2022/08/03 01:44:05;;;;;;;;;;;;;;;22.12;50.11;99805.84;1088258;54;19927;-82
2022/08/03 01:45:11;;;;;;;;;;;;;;;22.12;50.20;99814.03;1088199;54;19946;-83
2022/08/03 01:46:15;;;;;;;;;;;;;;;22.08;50.69;99799.22;1088291;54;19927;-85
2022/08/03 01:47:19;;;;;;;;;;;;;;;22.08;50.55;99800.03;1088210;54;19926;-83
2022/08/03 01:48:23;;;;;;;;;;;;;;;22.07;50.46;99800.28;1088288;54;19982;-84
2022/08/03 01:49:25;;;;;;;;;;;;;;;22.06;50.73;99812.22;1088220;54;19950;-83
2022/08/03 01:50:31;;;;;;;;;;;;;;;22.05;50.71;99805.09;1088289;54;19923;-83
2022/08/03 01:51:33;;;;;;;;;;;;;;;22.02;50.84;99811.00;1088201;54;20023;-83
2022/08/03 01:52:39;;;;;;;;;;;;;;;22.00;50.92;99813.13;1089681;39;20463;-83
2022/08/03 01:53:41;;;;;;;;;;;;;;;21.96;50.88;99810.84;1087863;54;19958;-83
2022/08/03 01:54:46;;;;;;;;;;;;;;;21.96;51.19;99804.59;1088754;39;20625;-84
2022/08/03 01:55:51;;;;;;;;;;;;;;;21.94;51.11;99809.41;1087883;54;19942;-83
2022/08/03 01:56:57;;;;;;;;;;;;;;;21.92;51.08;99804.19;1088202;54;20003;-81
2022/08/03 01:58:00;;;;;;;;;;;;;;;21.91;51.19;99804.41;1088229;54;19946;-84
2022/08/03 01:59:05;;;;;;;;;;;;;;;21.88;51.40;99805.72;1088223;54;19981;-83
2022/08/03 02:00:10;;;;;;;;;;;;;;;21.85;51.44;99808.88;1088228;54;19935;-83
2022/08/03 02:01:15;;;;;;;;;;;;;;;21.85;51.34;99797.97;1088221;54;19942;-83
2022/08/03 02:02:16;;;;;;;;;;;;;;;21.86;51.14;99801.56;1087819;54;19949;-84
2022/08/03 02:03:22;;;;;;;;;;;;;;;21.83;51.46;99800.09;1088222;54;19958;-85
2022/08/03 02:04:24;;;;;;;;;;;;;;;21.83;51.30;99804.72;1088228;54;20586;-82
2022/08/03 02:05:29;;;;;;;;;;;;;;;21.82;51.69;99798.47;1088218;54;19947;-84
2022/08/03 02:06:31;;;;;;;;;;;;;;;21.81;51.46;99796.78;1088134;54;19949;-85
2022/08/03 02:07:36;;;;;;;;;;;;;;;21.80;51.76;99803.28;1090328;39;20553;-84
2022/08/03 02:08:38;;;;;;;;;;;;;;;21.82;51.69;99793.00;1088215;54;19942;-83
2022/08/03 02:09:43;;;;;;;;;;;;;;;21.78;51.72;99803.47;1088231;54;20012;-83
2022/08/03 02:10:45;;;;;;;;;;;;;;;21.79;51.81;99798.91;1088118;54;19943;-83
2022/08/03 02:11:50;;;;;;;;;;;;;;;21.80;51.86;99800.56;1087716;54;19949;-82
2022/08/03 02:12:51;;;;;;;;;;;;;;;21.75;52.05;99793.06;1088087;54;19950;-83
2022/08/03 02:13:56;;;;;;;;;;;;;;;21.72;52.52;99798.13;1088399;54;19998;-83
2022/08/03 02:14:58;;;;;;;;;;;;;;;21.73;51.90;99794.34;1089456;39;20549;-85
2022/08/03 02:16:05;;;;;;;;;;;;;;;21.71;51.98;99801.91;1088535;54;19950;-82
2022/08/03 02:17:07;;;;;;;;;;;;;;;21.71;52.10;99804.63;1088501;54;19949;-81
2022/08/03 02:18:11;;;;;;;;;;;;;;;21.70;52.17;99794.81;1088562;54;19958;-83
2022/08/03 02:19:13;;;;;;;;;;;;;;;21.67;52.19;99798.81;1091395;39;20490;-82
2022/08/03 02:20:17;;;;;;;;;;;;;;;21.66;52.19;99799.88;1088551;54;19942;-83
2022/08/03 02:21:19;;;;;;;;;;;;;;;21.63;52.28;99790.25;1088551;54;19927;-83
2022/08/03 02:22:24;;;;;;;;;;;;;;;21.62;52.61;99804.91;1088510;54;20018;-81
2022/08/03 02:23:25;;;;;;;;;;;;;;;21.63;52.74;99801.13;1088517;54;19930;-82
2022/08/03 02:24:29;;;;;;;;;;;;;;;21.63;52.39;99795.69;1088506;54;20625;-82
2022/08/03 02:25:31;;;;;;;;;;;;;;;21.64;52.42;99799.25;1088490;54;19958;-82
2022/08/03 02:26:38;;;;;;;;;;;;;;;21.64;52.78;99797.34;1088511;54;19950;-82
2022/08/03 02:27:42;;;;;;;;;;;;;;;21.67;52.50;99804.25;1088480;54;19943;-82
2022/08/03 02:28:49;;;;;;;;;;;;;;;21.63;52.35;99803.03;1088322;54;19943;-81
2022/08/03 02:29:52;;;;;;;;;;;;;;;21.49;53.74;99808.53;1088074;54;19943;-81
2022/08/03 02:30:57;;;;;;;;;;;;;;;21.35;54.48;99805.09;1088089;54;19950;-84
2022/08/03 02:32:03;;;;;;;;;;;;;;;21.17;55.92;99807.75;1088435;54;19943;-84
2022/08/03 02:33:09;;;;;;;;;;;;;;;20.92;56.46;99800.41;1088536;54;19948;-83
2022/08/03 02:34:12;;;;;;;;;;;;;;;20.82;56.95;99808.19;1088513;54;19943;-83
2022/08/03 02:35:16;;;;;;;;;;;;;;;20.84;57.03;99804.22;1088445;54;19926;-81
2022/08/03 02:36:19;;;;;;;;;;;;;;;20.78;57.00;99801.56;1088531;54;19946;-83
2022/08/03 02:37:26;;;;;;;;;;;;;;;20.66;57.13;99813.06;1088479;54;19943;-82
2022/08/03 02:38:31;;;;;;;;;;;;;;;20.54;57.08;99804.78;1088533;54;19942;-81
2022/08/03 02:39:39;;;;;;;;;;;;;;;20.49;57.28;99806.47;1088546;54;19934;-81
2022/08/03 02:40:45;;;;;;;;;;;;;;;20.47;57.52;99798.53;1090528;39;20599;-82
2022/08/03 02:41:54;;;;;;;;;;;;;;;20.36;57.67;99816.34;1088514;54;19966;-82
2022/08/03 02:42:58;;;;;;;;;;;;;;;20.29;58.27;99807.41;1088386;54;20606;-81
2022/08/03 02:44:03;;;;;;;;;;;;;;;20.29;58.03;99807.41;1088506;54;20585;-81
2022/08/03 02:45:06;;;;;;;;;;;;;;;20.22;58.54;99807.41;1088545;54;19938;-82
2022/08/03 02:46:11;;;;;;;;;;;;;;;20.16;58.73;99807.44;1089163;31;20633;-86
2022/08/03 02:47:15;;;;;;;;;;;;;;;20.10;59.10;99806.41;1088172;54;19942;-88
2022/08/03 02:48:21;;;;;;;;;;;;;;;20.08;58.97;99812.06;1088282;54;19941;-85
2022/08/03 02:49:24;;;;;;;;;;;;;;;20.05;58.32;99804.31;1088419;54;19965;-86
2022/08/03 02:50:29;;;;;;;;;;;;;;;20.07;58.63;99804.13;1088664;54;19935;-86
2022/08/03 02:51:32;;;;;;;;;;;;;;;20.06;58.21;99803.28;1088574;54;19943;-87
2022/08/03 02:52:37;;;;;;;;;;;;;;;20.02;58.39;99799.34;1088517;54;19949;-88
2022/08/03 02:53:39;;;;;;;;;;;;;;;20.00;58.31;99804.16;1088628;54;19939;-89
2022/08/03 02:54:43;;;;;;;;;;;;;;;20.01;58.08;99800.41;1088609;54;20001;-85
2022/08/03 02:55:46;;;;;;;;;;;;;;;20.01;58.02;99805.81;1088609;54;19943;-86
2022/08/03 02:56:50;;;;;;;;;;;;;;;20.01;58.12;99805.81;1088623;54;19983;-89
2022/08/03 02:57:52;;;;;;;;;;;;;;;20.00;58.60;99806.00;1091586;39;20322;-85
2022/08/03 02:58:56;;;;;;;;;;;;;;;19.96;58.72;99808.31;1088507;54;19954;-87
2022/08/03 02:59:58;;;;;;;;;;;;;;;19.97;58.68;99803.75;1090862;39;20518;-85
2022/08/03 03:01:03;;;;;;;;;;;;;;;19.93;58.72;99811.47;1088614;54;19933;-85
2022/08/03 03:02:04;;;;;;;;;;;;;;;19.86;58.90;99805.22;1095642;39;20689;-88
2022/08/03 03:03:12;;;;;;;;;;;;;;;19.84;59.00;99807.28;1088017;54;20764;-84
2022/08/03 03:04:14;;;;;;;;;;;;;;;19.85;59.39;99808.94;1088203;54;19942;-85
2022/08/03 03:05:18;;;;;;;;;;;;;;;19.86;59.05;99803.34;1088089;54;19950;-84
2022/08/03 03:06:20;;;;;;;;;;;;;;;19.83;59.19;99809.16;1088124;54;19949;-86
2022/08/03 03:07:24;;;;;;;;;;;;;;;19.84;59.27;99810.81;1088546;54;20067;-88
2022/08/03 03:08:26;;;;;;;;;;;;;;;19.83;59.43;99808.34;1088587;54;19949;-86
2022/08/03 03:09:30;;;;;;;;;;;;;;;19.86;59.42;99818.78;1088635;54;19965;-85
2022/08/03 03:10:31;;;;;;;;;;;;;;;19.84;58.94;99813.53;1090934;46;19949;-84
2022/08/03 03:11:37;;;;;;;;;;;;;;;19.95;59.08;99801.22;1088501;54;20006;-83
2022/08/03 03:12:40;;;;;;;;;;;;;;;19.97;58.87;99806.47;1088471;54;20954;-84
2022/08/03 03:13:44;;;;;;;;;;;;;;;19.95;58.36;99809.34;1088537;54;19949;-82
2022/08/03 03:14:46;;;;;;;;;;;;;;;19.97;58.58;99803.75;1093060;39;20617;-81
2022/08/03 03:15:50;;;;;;;;;;;;;;;19.98;58.50;99810.84;1088449;54;19998;-82
2022/08/03 03:16:51;;;;;;;;;;;;;;;19.97;58.26;99810.00;1088438;54;20622;-81
2022/08/03 03:17:56;;;;;;;;;;;;;;;20.00;58.06;99809.56;1088487;54;20554;-82
2022/08/03 03:19:03;;;;;;;;;;;;;;;20.05;57.94;99812.47;1088470;54;19950;-82
2022/08/03 03:20:06;;;;;;;;;;;;;;;20.04;58.62;99807.25;1088463;54;19927;-83
2022/08/03 03:21:11;;;;;;;;;;;;;;;20.01;58.79;99805.81;1088461;54;19992;-81
2022/08/03 03:22:13;;;;;;;;;;;;;;;20.04;58.60;99807.25;1088910;46;19943;-81
2022/08/03 03:23:18;;;;;;;;;;;;;;;20.06;59.12;99811.41;1088669;46;20002;-83
2022/08/03 03:24:20;;;;;;;;;;;;;;;20.12;58.51;99812.47;1087818;54;19950;-81
2022/08/03 03:25:24;;;;;;;;;;;;;;;20.13;58.18;99805.97;1088019;54;19938;-82
2022/08/03 03:26:28;;;;;;;;;;;;;;;20.20;58.01;99806.78;1088437;54;20785;-84
2022/08/03 03:27:29;;;;;;;;;;;;;;;20.27;57.63;99804.88;1088347;54;19930;-84
2022/08/03 03:28:35;;;;;;;;;;;;;;;20.32;57.48;99803.41;1089781;46;20587;-85
2022/08/03 03:29:37;;;;;;;;;;;;;;;20.34;57.50;99810.28;1088510;54;19926;-86
2022/08/03 03:30:40;;;;;;;;;;;;;;;20.41;56.79;99799.41;1088478;54;19955;-86
2022/08/03 03:31:42;;;;;;;;;;;;;;;20.42;56.90;99801.91;1088471;54;19949;-87
2022/08/03 03:32:45;;;;;;;;;;;;;;;20.46;57.20;99801.47;1088389;54;20507;-83
2022/08/03 03:33:47;;;;;;;;;;;;;;;20.48;57.21;99802.09;1089851;46;19927;-82
2022/08/03 03:34:53;;;;;;;;;;;;;;;20.51;56.87;99801.66;1091560;46;19946;-84
2022/08/03 03:35:55;;;;;;;;;;;;;;;20.55;56.41;99797.47;1088413;54;19950;-82
2022/08/03 03:36:58;;;;;;;;;;;;;;;20.57;56.23;99787.22;1088435;54;19942;-84
2022/08/03 03:38:00;;;;;;;;;;;;;;;20.57;56.46;99792.66;1096079;39;20736;-84
2022/08/03 03:39:03;;;;;;;;;;;;;;;20.58;56.11;99795.13;1093976;31;20598;-81
2022/08/03 03:40:07;;;;;;;;;;;;;;;20.56;56.48;99799.94;1088486;54;19938;-80
2022/08/03 03:41:11;;;;;;;;;;;;;;;20.54;56.18;99796.66;1088092;54;19949;-81
2022/08/03 03:42:13;;;;;;;;;;;;;;;20.56;56.29;99801.84;1087958;54;19943;-81
2022/08/03 03:43:17;;;;;;;;;;;;;;;20.56;55.88;99797.22;1088061;54;19949;-82
2022/08/03 03:44:18;;;;;;;;;;;;;;;20.53;56.31;99792.25;1088355;54;19954;-83
2022/08/03 03:45:23;;;;;;;;;;;;;;;20.52;56.14;99800.59;1089040;46;19949;-82
2022/08/03 03:46:25;;;;;;;;;;;;;;;20.52;56.17;99800.59;1096076;39;20701;-81
2022/08/03 03:47:31;;;;;;;;;;;;;;;20.50;56.21;99794.56;1088372;54;19935;-81
2022/08/03 03:48:32;;;;;;;;;;;;;;;20.46;56.27;99798.75;1088437;54;19943;-81
2022/08/03 03:49:36;;;;;;;;;;;;;;;20.45;56.51;99800.63;1090084;46;19943;-82
2022/08/03 03:50:39;;;;;;;;;;;;;;;20.44;56.46;99804.41;1088391;54;19935;-81
2022/08/03 03:51:44;;;;;;;;;;;;;;;20.46;56.38;99804.19;1088458;54;19943;-81
2022/08/03 03:52:45;;;;;;;;;;;;;;;20.47;56.16;99803.97;1088366;54;19935;-82
2022/08/03 03:53:58;;;;;;;;;;;;;;;20.48;56.29;99804.81;1088437;54;19954;-81
2022/08/03 03:54:59;;;;;;;;;;;;;;;20.47;55.95;99803.16;1088402;54;19950;-81
2022/08/03 03:56:03;;;;;;;;;;;;;;;20.47;56.37;99803.16;1088337;54;19943;-82
2022/08/03 03:57:04;;;;;;;;;;;;;;;20.48;55.93;99804.81;1088404;46;19942;-83
2022/08/03 03:58:09;;;;;;;;;;;;;;;20.49;56.06;99806.47;1088917;46;20589;-84
2022/08/03 03:59:10;;;;;;;;;;;;;;;20.48;56.24;99808.34;1087974;54;19943;-85
2022/08/03 04:00:15;;;;;;;;;;;;;;;20.50;56.02;99808.97;1087934;54;20523;-81
2022/08/03 04:01:16;;;;;;;;;;;;;;;20.51;55.85;99804.34;1088153;54;20111;-82
2022/08/03 04:02:20;;;;;;;;;;;;;;;20.51;56.37;99804.34;1088326;54;19939;-83
2022/08/03 04:03:21;;;;;;;;;;;;;;;20.48;56.46;99800.19;1088269;54;19974;-83
2022/08/03 04:11:03;;;;;;;;;;;;;;;20.58;55.96;99805.19;1088336;54;19935;-81
2022/08/03 04:12:07;;;;;;;;;;;;;;;20.61;56.04;99798.47;1091282;39;20482;-81
2022/08/03 04:13:09;;;;;;;;;;;;;;;20.60;55.80;99792.19;1088403;54;19939;-81
2022/08/03 04:14:16;;;;;;;;;;;;;;;20.61;55.80;99799.28;1088431;54;19957;-83
2022/08/03 04:15:18;;;;;;;;;;;;;;;20.60;56.09;99800.34;1088375;54;19942;-84
2022/08/03 04:16:22;;;;;;;;;;;;;;;20.60;55.92;99800.34;1088121;54;19943;-82
2022/08/03 04:17:26;;;;;;;;;;;;;;;20.60;55.93;99810.38;1087933;54;19965;-83
2022/08/03 04:18:32;;;;;;;;;;;;;;;20.58;56.21;99808.72;1087966;54;19990;-83
2022/08/03 04:19:37;;;;;;;;;;;;;;;20.60;55.99;99799.53;1088329;54;20567;-82
2022/08/03 04:20:44;;;;;;;;;;;;;;;20.57;56.25;99806.22;1088409;54;19950;-84
2022/08/03 04:21:52;;;;;;;;;;;;;;;20.56;56.19;99804.56;1091293;39;20522;-82
2022/08/03 04:22:55;;;;;;;;;;;;;;;20.59;55.92;99809.56;1088370;54;19943;-83
2022/08/03 04:24:02;;;;;;;;;;;;;;;20.59;56.18;99806.84;1088365;54;19943;-83
2022/08/03 04:25:04;;;;;;;;;;;;;;;20.62;55.83;99808.28;1088348;54;19966;-85
2022/08/03 04:26:10;;;;;;;;;;;;;;;20.64;56.17;99812.44;1088310;54;19927;-84
2022/08/03 04:27:13;;;;;;;;;;;;;;;20.62;56.21;99811.84;1088338;54;19994;-84
2022/08/03 04:28:18;;;;;;;;;;;;;;;20.63;56.14;99807.25;1088298;54;19941;-84
2022/08/03 04:29:19;;;;;;;;;;;;;;;20.64;56.16;99809.75;1088394;54;19943;-83
2022/08/03 04:30:23;;;;;;;;;;;;;;;20.65;56.13;99805.97;1088810;46;20666;-83
2022/08/03 04:31:26;;;;;;;;;;;;;;;20.68;55.71;99805.56;1088318;54;20031;-82
2022/08/03 04:32:30;;;;;;;;;;;;;;;20.65;56.10;99803.25;1088214;54;20618;-84
2022/08/03 04:33:32;;;;;;;;;;;;;;;20.68;56.26;99805.56;1088358;54;19950;-82
2022/08/03 04:34:36;;;;;;;;;;;;;;;20.67;56.42;99803.03;1087921;54;19954;-83
2022/08/03 04:35:37;;;;;;;;;;;;;;;20.68;56.29;99802.84;1087878;54;19954;-83
2022/08/03 04:36:49;;;;;;;;;;;;;;;20.61;57.42;99812.06;1088086;54;19927;-82
2022/08/03 04:37:51;;;;;;;;;;;;;;;20.64;56.63;99809.75;1088340;54;20626;-83
2022/08/03 04:38:57;;;;;;;;;;;;;;;20.64;56.53;99808.91;1088395;54;19927;-84
2022/08/03 04:40:00;;;;;;;;;;;;;;;20.64;56.77;99814.34;1088767;46;20011;-83
2022/08/03 04:41:05;;;;;;;;;;;;;;;20.64;56.63;99815.16;1088343;54;19949;-84
2022/08/03 04:42:07;;;;;;;;;;;;;;;20.58;57.13;99819.56;1089729;46;20578;-84
2022/08/03 04:43:11;;;;;;;;;;;;;;;20.63;56.96;99820.81;1088297;54;19950;-84
2022/08/03 04:44:13;;;;;;;;;;;;;;;20.60;57.32;99821.25;1088377;54;19942;-82
2022/08/03 04:45:17;;;;;;;;;;;;;;;20.59;57.27;99817.72;1088364;54;19942;-83
2022/08/03 04:46:21;;;;;;;;;;;;;;;20.56;57.42;99813.53;1088360;54;19933;-81
2022/08/03 04:47:25;;;;;;;;;;;;;;;20.51;57.80;99824.22;1088316;54;20654;-80
2022/08/03 04:48:27;;;;;;;;;;;;;;;20.51;57.69;99820.66;1088365;54;19950;-79
2022/08/03 04:49:31;;;;;;;;;;;;;;;20.50;57.83;99821.72;1088450;54;19998;-82
2022/08/03 04:50:33;;;;;;;;;;;;;;;20.37;58.27;99831.59;1088404;54;20523;-79
2022/08/03 04:51:37;;;;;;;;;;;;;;;20.20;58.96;99823.06;1088325;54;19947;-85
2022/08/03 04:52:41;;;;;;;;;;;;;;;20.16;59.23;99824.56;1087853;54;19954;-82
2022/08/03 04:53:45;;;;;;;;;;;;;;;20.04;59.47;99832.50;1087909;54;19943;-80
2022/08/03 04:54:47;;;;;;;;;;;;;;;20.01;59.56;99829.38;1088249;54;19943;-82
2022/08/03 04:55:51;;;;;;;;;;;;;;;19.98;59.43;99827.94;1088332;54;20666;-83
2022/08/03 04:56:52;;;;;;;;;;;;;;;19.93;59.68;99828.56;1088395;54;19966;-83
2022/08/03 04:57:55;;;;;;;;;;;;;;;19.89;59.85;99830.03;1091325;39;20553;-82
2022/08/03 04:58:57;;;;;;;;;;;;;;;19.82;59.96;99831.06;1088391;54;19950;-81
2022/08/03 05:00:00;;;;;;;;;;;;;;;19.74;60.19;99829.41;1088264;54;19946;-84
2022/08/03 05:01:01;;;;;;;;;;;;;;;19.76;60.23;99824.59;1088379;54;19942;-81
2022/08/03 05:02:05;;;;;;;;;;;;;;;19.73;60.01;99825.03;1088292;54;19995;-83
2022/08/03 05:03:09;;;;;;;;;;;;;;;19.73;60.09;99825.88;1090908;46;19942;-83
2022/08/03 05:04:10;;;;;;;;;;;;;;;19.69;60.25;99832.75;1088954;46;19943;-81
2022/08/03 05:05:14;;;;;;;;;;;;;;;19.66;60.48;99830.44;1088316;54;20472;-83
2022/08/03 05:06:18;;;;;;;;;;;;;;;19.68;60.07;99828.34;1088390;54;19927;-80
2022/08/03 05:07:19;;;;;;;;;;;;;;;19.68;60.16;99833.78;1088277;54;19950;-81
2022/08/03 05:08:26;;;;;;;;;;;;;;;19.67;60.34;99834.00;1088378;54;19942;-82
2022/08/03 05:09:27;;;;;;;;;;;;;;;19.69;60.07;99832.75;1088049;54;19943;-80
2022/08/03 05:34:31;;;;;;;;;;;;;;;20.49;57.72;99836.34;1087778;54;20593;-83
2022/08/03 05:35:33;;;;;;;;;;;;;;;20.60;57.33;99838.34;1088242;39;20843;-86
2022/08/03 05:36:38;;;;;;;;;;;;;;;20.65;57.38;99840.44;1087777;54;20669;-85
2022/08/03 05:37:39;;;;;;;;;;;;;;;20.69;57.00;99838.97;1087614;54;19946;-83
2022/08/03 05:38:43;;;;;;;;;;;;;;;20.70;57.10;99841.44;1089293;39;20534;-81
2022/08/03 05:39:44;;;;;;;;;;;;;;;20.73;56.98;99834.78;1087260;54;19950;-80
2022/08/03 05:40:48;;;;;;;;;;;;;;;20.76;56.79;99845.22;1086542;54;20044;-80
2022/08/03 05:41:49;;;;;;;;;;;;;;;20.82;56.74;99838.09;1086693;54;19946;-79
2022/08/03 05:42:53;;;;;;;;;;;;;;;20.90;56.45;99834.28;1086819;54;20569;-82
2022/08/03 05:43:57;;;;;;;;;;;;;;;20.96;56.20;99834.25;1086859;54;19951;-81
2022/08/03 05:44:58;;;;;;;;;;;;;;;21.02;56.37;99837.97;1086796;54;19979;-83
2022/08/03 05:46:02;;;;;;;;;;;;;;;21.06;55.85;99841.09;1086607;54;19947;-83
2022/08/03 05:47:06;;;;;;;;;;;;;;;21.11;56.09;99839.34;1086290;54;19950;-84
2022/08/03 05:48:07;;;;;;;;;;;;;;;21.13;55.98;99842.69;1086335;54;19946;-84
2022/08/03 05:49:11;;;;;;;;;;;;;;;21.06;56.03;99839.19;1086545;54;19947;-82
2022/08/03 05:50:15;;;;;;;;;;;;;;;20.94;56.22;99835.50;1086757;54;19942;-83
2022/08/03 05:51:18;;;;;;;;;;;;;;;20.96;56.34;99839.69;1086299;54;19951;-82
2022/08/03 05:52:19;;;;;;;;;;;;;;;20.94;56.32;99833.63;1086594;54;19943;-82
2022/08/03 05:53:23;;;;;;;;;;;;;;;21.01;56.04;99836.31;1086421;54;19990;-82
2022/08/03 05:54:24;;;;;;;;;;;;;;;21.07;56.15;99834.59;1086341;54;20305;-82
2022/08/03 05:55:28;;;;;;;;;;;;;;;21.10;55.97;99842.31;1086414;54;19942;-81
2022/08/03 05:56:32;;;;;;;;;;;;;;;21.18;55.86;99836.59;1086380;54;19943;-81
2022/08/03 05:57:33;;;;;;;;;;;;;;;21.22;55.40;99837.84;1086566;54;19967;-82
2022/08/03 05:58:37;;;;;;;;;;;;;;;21.24;55.66;99827.59;1086215;54;19958;-80
2022/08/03 05:59:38;;;;;;;;;;;;;;;21.27;55.55;99835.28;1086658;54;19942;-84
2022/08/03 06:00:42;;;;;;;;;;;;;;;21.32;55.53;99831.91;1086128;54;19951;-80
2022/08/03 06:01:43;;;;;;;;;;;;;;;21.35;55.55;99831.47;1086414;54;19950;-82
2022/08/03 06:02:47;;;;;;;;;;;;;;;21.39;55.42;99837.28;1086428;54;20033;-82
2022/08/03 06:03:49;;;;;;;;;;;;;;;21.45;55.08;99841.81;1086982;54;21198;-81